createdAt,value
2023-05-08T00:00:21.937Z,1001.55
2023-05-08T00:01:21.889Z,1001.50
2023-05-08T00:02:21.866Z,1001.49
2023-05-08T00:03:21.844Z,1001.51
2023-05-08T00:04:21.739Z,1001.54
2023-05-08T00:05:21.604Z,1001.47
2023-05-08T00:06:21.555Z,1001.52
2023-05-08T00:07:21.478Z,1001.51
2023-05-08T00:08:21.450Z,1001.47
2023-05-08T00:09:21.358Z,1001.50
2023-05-08T00:10:21.234Z,1001.50
2023-05-08T00:11:21.258Z,1001.51
2023-05-08T00:12:21.154Z,1001.45
2023-05-08T00:13:21.219Z,1001.47
2023-05-08T00:14:21.026Z,1001.44
2023-05-08T00:15:20.961Z,1001.45
2023-05-08T00:16:20.930Z,1001.45
2023-05-08T00:17:21.067Z,1001.58
2023-05-08T00:18:20.767Z,1001.52
2023-05-08T00:19:20.789Z,1001.50
2023-05-08T00:20:21.443Z,1001.50
2023-05-08T00:21:20.623Z,1001.49
2023-05-08T00:22:21.395Z,1001.50
2023-05-08T00:23:20.438Z,1001.50
2023-05-08T00:24:20.385Z,1001.46
2023-05-08T00:25:20.368Z,1001.48
2023-05-08T00:26:20.251Z,1001.57
2023-05-08T00:27:20.241Z,1001.54
2023-05-08T00:28:20.194Z,1001.53
2023-05-08T00:29:20.131Z,1001.50
2023-05-08T00:30:20.023Z,1001.51
2023-05-08T00:31:19.953Z,1001.52
2023-05-08T00:32:20.037Z,1001.51
2023-05-08T00:33:19.872Z,1001.50
2023-05-08T00:34:19.796Z,1001.45
2023-05-08T00:35:19.710Z,1001.50
2023-05-08T00:36:19.682Z,1001.49
2023-05-08T00:37:19.561Z,1001.44
2023-05-08T00:38:19.562Z,1001.47
2023-05-08T00:39:19.493Z,1001.49
2023-05-08T00:40:19.452Z,1001.42
2023-05-08T00:41:19.311Z,1001.46
2023-05-08T00:42:19.289Z,1001.47
2023-05-08T00:43:19.179Z,1001.46
2023-05-08T00:44:19.092Z,1001.47
2023-05-08T00:45:19.081Z,1001.49
2023-05-08T00:46:19.017Z,1001.46
2023-05-08T00:47:18.898Z,1001.47
2023-05-08T00:48:18.970Z,1001.47
2023-05-08T00:49:18.799Z,1001.44
2023-05-08T00:50:18.790Z,1001.45
2023-05-08T00:51:18.725Z,1001.40
2023-05-08T00:52:18.617Z,1001.39
2023-05-08T00:53:18.575Z,1001.40
2023-05-08T00:54:18.534Z,1001.42
2023-05-08T00:55:18.448Z,1001.41
2023-05-08T00:56:18.418Z,1001.40
2023-05-08T00:57:18.285Z,1001.41
2023-05-08T00:58:18.297Z,1001.40
2023-05-08T00:59:18.204Z,1001.40
2023-05-08T01:00:18.096Z,1001.38
2023-05-08T01:01:18.067Z,1001.40
2023-05-08T01:02:18.153Z,1001.40
2023-05-08T01:03:18.007Z,1001.41
2023-05-08T01:04:17.856Z,1001.42
2023-05-08T01:05:17.820Z,1001.47
2023-05-08T01:06:17.750Z,1001.45
2023-05-08T01:07:17.706Z,1001.44
2023-05-08T01:08:17.649Z,1001.42
2023-05-08T01:09:17.538Z,1001.43
2023-05-08T01:10:17.491Z,1001.39
2023-05-08T01:11:17.446Z,1001.40
2023-05-08T01:12:17.360Z,1001.43
2023-05-08T01:13:17.315Z,1001.36
2023-05-08T01:14:17.263Z,1001.37
2023-05-08T01:15:17.181Z,1001.41
2023-05-08T01:16:17.129Z,1001.38
2023-05-08T01:17:17.119Z,1001.39
2023-05-08T01:18:16.981Z,1001.36
2023-05-08T01:19:16.920Z,1001.42
2023-05-08T01:20:16.856Z,1001.38
2023-05-08T01:21:16.870Z,1001.42
2023-05-08T01:22:16.719Z,1001.43
2023-05-08T01:23:16.648Z,1001.42
2023-05-08T01:24:16.623Z,1001.43
2023-05-08T01:25:16.692Z,1001.44
2023-05-08T01:26:16.472Z,1001.44
2023-05-08T01:27:16.478Z,1001.44
2023-05-08T01:28:16.369Z,1001.44
2023-05-08T01:29:16.288Z,1001.45
2023-05-08T01:30:16.225Z,1001.42
2023-05-08T01:31:16.206Z,1001.47
2023-05-08T01:32:16.106Z,1001.43
2023-05-08T01:33:16.126Z,1001.46
2023-05-08T01:34:16.027Z,1001.48
2023-05-08T01:35:15.902Z,1001.49
2023-05-08T01:36:15.884Z,1001.48
2023-05-08T01:37:15.866Z,1001.49
2023-05-08T01:38:15.717Z,1001.49
2023-05-08T01:39:15.688Z,1001.47
2023-05-08T01:40:15.847Z,1001.44
2023-05-08T01:41:15.607Z,1001.45
2023-05-08T01:42:15.475Z,1001.45
2023-05-08T01:43:15.448Z,1001.45
2023-05-08T01:44:15.425Z,1001.46
2023-05-08T01:45:15.307Z,1001.46
2023-05-08T01:46:15.262Z,1001.45
2023-05-08T01:47:15.249Z,1001.48
2023-05-08T01:48:15.058Z,1001.43
2023-05-08T01:49:15.085Z,1001.45
2023-05-08T01:50:15.338Z,1001.49
2023-05-08T01:51:14.872Z,1001.48
2023-05-08T01:52:14.897Z,1001.48
2023-05-08T01:53:14.839Z,1001.45
2023-05-08T01:54:14.683Z,1001.46
2023-05-08T01:55:14.677Z,1001.49
2023-05-08T01:56:14.665Z,1001.48
2023-05-08T01:57:14.509Z,1001.45
2023-05-08T01:58:14.490Z,1001.43
2023-05-08T01:59:14.378Z,1001.44
2023-05-08T02:00:14.717Z,1001.48
2023-05-08T02:01:14.384Z,1001.45
2023-05-08T02:02:14.275Z,1001.47
2023-05-08T02:03:14.198Z,1001.46
2023-05-08T02:04:14.164Z,1001.47
2023-05-08T02:05:14.044Z,1001.46
2023-05-08T02:06:14.017Z,1001.47
2023-05-08T02:07:13.912Z,1001.48
2023-05-08T02:08:13.883Z,1001.45
2023-05-08T02:09:13.784Z,1001.46
2023-05-08T02:10:13.844Z,1001.51
2023-05-08T02:11:13.629Z,1001.50
2023-05-08T02:12:13.528Z,1001.50
2023-05-08T02:13:13.548Z,1001.50
2023-05-08T02:14:13.478Z,1001.47
2023-05-08T02:15:13.393Z,1001.43
2023-05-08T02:16:13.387Z,1001.47
2023-05-08T02:17:13.260Z,1001.49
2023-05-08T02:18:13.232Z,1001.50
2023-05-08T02:19:13.174Z,1001.47
2023-05-08T02:20:13.281Z,1001.46
2023-05-08T02:21:13.004Z,1001.50
2023-05-08T02:22:12.984Z,1001.45
2023-05-08T02:23:12.949Z,1001.49
2023-05-08T02:24:12.818Z,1001.52
2023-05-08T02:25:12.791Z,1001.51
2023-05-08T02:26:12.704Z,1001.52
2023-05-08T02:27:12.660Z,1001.50
2023-05-08T02:28:12.560Z,1001.53
2023-05-08T02:29:13.911Z,1001.50
2023-05-08T02:30:12.672Z,1001.53
2023-05-08T02:31:12.420Z,1001.54
2023-05-08T02:32:12.451Z,1001.53
2023-05-08T02:33:12.461Z,1001.54
2023-05-08T02:34:12.266Z,1001.52
2023-05-08T02:35:12.101Z,1001.52
2023-05-08T02:36:12.063Z,1001.54
2023-05-08T02:37:12.060Z,1001.55
2023-05-08T02:38:11.972Z,1001.54
2023-05-08T02:39:12.037Z,1001.50
2023-05-08T02:40:11.968Z,1001.53
2023-05-08T02:41:11.779Z,1001.54
2023-05-08T02:42:11.714Z,1001.58
2023-05-08T02:43:11.637Z,1001.54
2023-05-08T02:44:11.580Z,1001.55
2023-05-08T02:45:11.495Z,1001.55
2023-05-08T02:46:13.870Z,1001.54
2023-05-08T02:47:11.388Z,1001.53
2023-05-08T02:48:11.338Z,1001.53
2023-05-08T02:49:11.275Z,1001.55
2023-05-08T02:50:11.472Z,1001.56
2023-05-08T02:51:11.122Z,1001.55
2023-05-08T02:52:11.060Z,1001.63
2023-05-08T02:53:11.049Z,1001.61
2023-05-08T02:54:10.959Z,1001.62
2023-05-08T02:55:10.927Z,1001.63
2023-05-08T02:56:10.799Z,1001.58
2023-05-08T02:57:10.763Z,1001.59
2023-05-08T02:58:10.697Z,1001.58
2023-05-08T02:59:10.610Z,1001.55
2023-05-08T03:00:10.693Z,1001.54
2023-05-08T03:01:10.501Z,1001.57
2023-05-08T03:02:10.451Z,1001.56
2023-05-08T03:03:10.482Z,1001.55
2023-05-08T03:04:10.324Z,1001.57
2023-05-08T03:05:10.255Z,1001.52
2023-05-08T03:06:10.185Z,1001.55
2023-05-08T03:07:10.580Z,1001.53
2023-05-08T03:08:10.138Z,1001.52
2023-05-08T03:09:09.981Z,1001.51
2023-05-08T03:10:10.021Z,1001.52
2023-05-08T03:11:09.957Z,1001.50
2023-05-08T03:12:09.848Z,1001.53
2023-05-08T03:13:09.748Z,1001.53
2023-05-08T03:14:09.798Z,1001.52
2023-05-08T03:15:09.539Z,1001.48
2023-05-08T03:16:09.614Z,1001.52
2023-05-08T03:17:09.445Z,1001.51
2023-05-08T03:18:09.462Z,1001.49
2023-05-08T03:19:09.335Z,1001.48
2023-05-08T03:20:09.256Z,1001.49
2023-05-08T03:21:09.197Z,1001.52
2023-05-08T03:22:09.118Z,1001.45
2023-05-08T03:23:09.084Z,1001.50
2023-05-08T03:24:09.000Z,1001.49
2023-05-08T03:25:08.910Z,1001.49
2023-05-08T03:26:08.837Z,1001.47
2023-05-08T03:27:08.775Z,1001.45
2023-05-08T03:28:08.739Z,1001.47
2023-05-08T03:29:08.712Z,1001.51
2023-05-08T03:30:09.533Z,1001.50
2023-05-08T03:31:08.606Z,1001.43
2023-05-08T03:32:08.483Z,1001.49
2023-05-08T03:33:08.511Z,1001.45
2023-05-08T03:34:08.414Z,1001.45
2023-05-08T03:35:08.320Z,1001.45
2023-05-08T03:36:08.243Z,1001.39
2023-05-08T03:37:08.157Z,1001.45
2023-05-08T03:38:08.154Z,1001.45
2023-05-08T03:39:08.051Z,1001.44
2023-05-08T03:40:07.953Z,1001.45
2023-05-08T03:41:07.901Z,1001.50
2023-05-08T03:42:07.895Z,1001.45
2023-05-08T03:43:07.887Z,1001.45
2023-05-08T03:44:07.742Z,1001.48
2023-05-08T03:45:08.585Z,1001.45
2023-05-08T03:46:07.701Z,1001.44
2023-05-08T03:47:07.562Z,1001.49
2023-05-08T03:48:07.664Z,1001.45
2023-05-08T03:49:07.427Z,1001.43
2023-05-08T03:50:07.353Z,1001.43
2023-05-08T03:51:07.319Z,1001.45
2023-05-08T03:52:07.226Z,1001.45
2023-05-08T03:53:07.177Z,1001.42
2023-05-08T03:54:07.145Z,1001.44
2023-05-08T03:55:07.063Z,1001.43
2023-05-08T03:56:06.934Z,1001.41
2023-05-08T03:57:06.935Z,1001.43
2023-05-08T03:58:06.990Z,1001.43
2023-05-08T03:59:06.839Z,1001.38
2023-05-08T04:00:06.748Z,1001.39
2023-05-08T04:01:06.628Z,1001.41
2023-05-08T04:02:06.642Z,1001.40
2023-05-08T04:03:06.606Z,1001.41
2023-05-08T04:04:06.626Z,1001.43
2023-05-08T04:05:06.422Z,1001.37
2023-05-08T04:06:06.356Z,1001.44
2023-05-08T04:07:06.339Z,1001.43
2023-05-08T04:08:06.270Z,1001.45
2023-05-08T04:09:06.149Z,1001.43
2023-05-08T04:10:06.054Z,1001.46
2023-05-08T04:11:06.084Z,1001.47
2023-05-08T04:12:06.008Z,1001.49
2023-05-08T04:13:05.965Z,1001.50
2023-05-08T04:14:05.892Z,1001.50
2023-05-08T04:15:05.747Z,1001.51
2023-05-08T04:16:05.751Z,1001.52
2023-05-08T04:17:05.765Z,1001.53
2023-05-08T04:18:05.637Z,1001.49
2023-05-08T04:19:05.519Z,1001.51
2023-05-08T04:20:05.476Z,1001.51
2023-05-08T04:21:05.413Z,1001.52
2023-05-08T04:22:05.304Z,1001.54
2023-05-08T04:23:05.292Z,1001.54
2023-05-08T04:24:05.211Z,1001.52
2023-05-08T04:25:05.174Z,1001.51
2023-05-08T04:26:05.587Z,1001.51
2023-05-08T04:27:05.037Z,1001.50
2023-05-08T04:28:04.983Z,1001.50
2023-05-08T04:29:04.914Z,1001.50
2023-05-08T04:30:04.842Z,1001.53
2023-05-08T04:31:04.731Z,1001.57
2023-05-08T04:32:04.705Z,1001.56
2023-05-08T04:33:04.735Z,1001.58
2023-05-08T04:34:04.569Z,1001.61
2023-05-08T04:35:04.572Z,1001.63
2023-05-08T04:36:04.519Z,1001.63
2023-05-08T04:37:04.388Z,1001.61
2023-05-08T04:38:04.386Z,1001.64
2023-05-08T04:39:04.290Z,1001.58
2023-05-08T04:40:04.198Z,1001.62
2023-05-08T04:41:04.251Z,1001.63
2023-05-08T04:42:04.103Z,1001.68
2023-05-08T04:43:04.006Z,1001.65
2023-05-08T04:44:03.969Z,1001.68
2023-05-08T04:45:03.914Z,1001.70
2023-05-08T04:46:03.898Z,1001.66
2023-05-08T04:47:03.773Z,1001.67
2023-05-08T04:48:03.738Z,1001.71
2023-05-08T04:49:03.663Z,1001.68
2023-05-08T04:50:03.582Z,1001.70
2023-05-08T04:51:03.517Z,1001.64
2023-05-08T04:52:03.491Z,1001.66
2023-05-08T04:53:03.359Z,1001.69
2023-05-08T04:54:03.364Z,1001.70
2023-05-08T04:55:03.281Z,1001.70
2023-05-08T04:56:03.194Z,1001.75
2023-05-08T04:57:03.123Z,1001.74
2023-05-08T04:58:03.094Z,1001.73
2023-05-08T04:59:03.035Z,1001.77
2023-05-08T05:00:02.974Z,1001.75
2023-05-08T05:01:02.900Z,1001.79
2023-05-08T05:02:02.881Z,1001.78
2023-05-08T05:03:02.811Z,1001.78
2023-05-08T05:04:02.764Z,1001.78
2023-05-08T05:05:02.658Z,1001.82
2023-05-08T05:06:02.554Z,1001.77
2023-05-08T05:07:02.506Z,1001.81
2023-05-08T05:08:02.426Z,1001.82
2023-05-08T05:09:02.368Z,1001.87
2023-05-08T05:10:02.425Z,1001.84
2023-05-08T05:11:02.242Z,1001.82
2023-05-08T05:12:02.212Z,1001.82
2023-05-08T05:13:02.177Z,1001.85
2023-05-08T05:14:02.154Z,1001.88
2023-05-08T05:15:02.047Z,1001.87
2023-05-08T05:16:02.673Z,1001.91
2023-05-08T05:17:03.178Z,1001.90
2023-05-08T05:18:01.850Z,1001.91
2023-05-08T05:19:01.766Z,1001.92
2023-05-08T05:20:01.732Z,1001.88
2023-05-08T05:21:01.619Z,1001.84
2023-05-08T05:22:01.635Z,1001.89
2023-05-08T05:23:01.477Z,1001.90
2023-05-08T05:24:01.441Z,1001.80
2023-05-08T05:25:01.438Z,1001.83
2023-05-08T05:26:02.073Z,1001.87
2023-05-08T05:27:01.250Z,1001.86
2023-05-08T05:28:01.149Z,1001.88
2023-05-08T05:29:01.162Z,1001.89
2023-05-08T05:30:01.112Z,1001.86
2023-05-08T05:31:01.027Z,1001.85
2023-05-08T05:32:01.035Z,1001.87
2023-05-08T05:33:00.895Z,1001.88
2023-05-08T05:34:00.787Z,1001.92
2023-05-08T05:35:00.748Z,1001.87
2023-05-08T05:36:00.669Z,1001.83
2023-05-08T05:37:02.065Z,1001.80
2023-05-08T05:38:03.076Z,1001.83
2023-05-08T05:39:02.036Z,1001.88
2023-05-08T05:40:00.412Z,1001.86
2023-05-08T05:41:01.741Z,1001.87
2023-05-08T05:42:01.688Z,1001.93
2023-05-08T05:43:07.056Z,1001.87
2023-05-08T05:44:02.575Z,1001.92
2023-05-08T05:45:09.146Z,1001.91
2023-05-08T05:46:03.087Z,1001.92
2023-05-08T05:47:00.017Z,1001.89
2023-05-08T05:47:59.932Z,1001.88
2023-05-08T05:48:59.868Z,1001.84
2023-05-08T05:49:59.868Z,1001.89
2023-05-08T05:50:59.702Z,1001.91
2023-05-08T05:51:59.686Z,1001.89
2023-05-08T05:53:02.089Z,1001.91
2023-05-08T05:54:00.648Z,1001.93
2023-05-08T05:55:03.099Z,1001.90
2023-05-08T05:56:05.081Z,1001.88
2023-05-08T05:57:01.038Z,1001.86
2023-05-08T05:58:00.802Z,1001.89
2023-05-08T05:58:59.536Z,1001.89
2023-05-08T05:59:59.788Z,1001.87
2023-05-08T06:01:01.592Z,1001.86
2023-05-08T06:01:59.151Z,1001.83
2023-05-08T06:02:59.235Z,1001.85
2023-05-08T06:03:59.030Z,1001.89
2023-05-08T06:04:58.840Z,1001.81
2023-05-08T06:05:59.823Z,1001.85
2023-05-08T06:06:58.750Z,1001.85
2023-05-08T06:07:58.624Z,1001.88
2023-05-08T06:08:58.593Z,1001.85
2023-05-08T06:09:58.561Z,1001.80
2023-05-08T06:10:58.651Z,1001.83
2023-05-08T06:11:58.420Z,1001.87
2023-05-08T06:12:58.336Z,1001.86
2023-05-08T06:13:58.355Z,1001.89
2023-05-08T06:14:58.287Z,1001.87
2023-05-08T06:15:58.188Z,1001.90
2023-05-08T06:17:00.497Z,1001.86
2023-05-08T06:17:58.126Z,1001.86
2023-05-08T06:18:58.063Z,1001.87
2023-05-08T06:19:57.941Z,1001.91
2023-05-08T06:20:57.944Z,1001.86
2023-05-08T06:21:57.810Z,1001.90
2023-05-08T06:22:57.760Z,1001.81
2023-05-08T06:23:57.831Z,1001.81
2023-05-08T06:24:57.863Z,1001.82
2023-05-08T06:25:58.677Z,1001.81
2023-05-08T06:26:58.611Z,1001.79
2023-05-08T06:27:57.408Z,1001.81
2023-05-08T06:28:57.382Z,1001.78
2023-05-08T06:29:57.386Z,1001.77
2023-05-08T06:30:57.328Z,1001.77
2023-05-08T06:31:57.337Z,1001.81
2023-05-08T06:32:57.174Z,1001.85
2023-05-08T06:33:57.154Z,1001.82
2023-05-08T06:34:57.033Z,1001.88
2023-05-08T06:35:56.946Z,1001.88
2023-05-08T06:36:56.848Z,1001.84
2023-05-08T06:37:57.580Z,1001.76
2023-05-08T06:38:56.749Z,1001.81
2023-05-08T06:40:10.359Z,1001.76
2023-05-08T06:40:56.661Z,1001.77
2023-05-08T06:41:56.555Z,1001.71
2023-05-08T06:42:56.473Z,1001.77
2023-05-08T06:43:56.405Z,1001.79
2023-05-08T06:44:56.448Z,1001.76
2023-05-08T06:45:56.318Z,1001.77
2023-05-08T06:46:57.638Z,1001.78
2023-05-08T06:47:57.130Z,1001.82
2023-05-08T06:48:56.135Z,1001.79
2023-05-08T06:49:56.032Z,1001.81
2023-05-08T06:50:57.223Z,1001.79
2023-05-08T06:51:57.808Z,1001.76
2023-05-08T06:52:57.301Z,1001.81
2023-05-08T06:53:55.774Z,1001.73
2023-05-08T06:54:55.755Z,1001.73
2023-05-08T06:55:55.683Z,1001.75
2023-05-08T06:56:55.634Z,1001.73
2023-05-08T06:57:55.575Z,1001.73
2023-05-08T06:59:07.169Z,1001.76
2023-05-08T06:59:55.414Z,1001.75
2023-05-08T07:00:55.365Z,1001.74
2023-05-08T07:01:55.329Z,1001.74
2023-05-08T07:02:55.256Z,1001.73
2023-05-08T07:03:55.205Z,1001.74
2023-05-08T07:04:55.156Z,1001.68
2023-05-08T07:05:55.072Z,1001.68
2023-05-08T07:06:55.579Z,1001.70
2023-05-08T07:07:54.952Z,1001.74
2023-05-08T07:08:54.877Z,1001.73
2023-05-08T07:09:54.892Z,1001.66
2023-05-08T07:10:54.801Z,1001.69
2023-05-08T07:11:54.647Z,1001.67
2023-05-08T07:12:54.652Z,1001.66
2023-05-08T07:13:54.615Z,1001.67
2023-05-08T07:14:55.879Z,1001.70
2023-05-08T07:15:54.484Z,1001.66
2023-05-08T07:16:54.360Z,1001.65
2023-05-08T07:17:54.438Z,1001.65
2023-05-08T07:18:54.485Z,1001.63
2023-05-08T07:19:54.691Z,1001.64
2023-05-08T07:20:55.029Z,1001.60
2023-05-08T07:21:55.113Z,1001.60
2023-05-08T07:22:54.427Z,1001.63
2023-05-08T07:23:54.708Z,1001.65
2023-05-08T07:24:54.121Z,1001.66
2023-05-08T07:25:53.841Z,1001.66
2023-05-08T07:26:53.834Z,1001.66
2023-05-08T07:27:56.107Z,1001.63
2023-05-08T07:28:54.537Z,1001.60
2023-05-08T07:29:53.676Z,1001.59
2023-05-08T07:30:53.536Z,1001.64
2023-05-08T07:31:53.471Z,1001.63
2023-05-08T07:32:53.489Z,1001.64
2023-05-08T07:33:53.353Z,1001.64
2023-05-08T07:34:53.236Z,1001.62
2023-05-08T07:35:53.218Z,1001.62
2023-05-08T07:36:53.135Z,1001.60
2023-05-08T07:37:53.094Z,1001.55
2023-05-08T07:38:53.017Z,1001.59
2023-05-08T07:39:52.944Z,1001.58
2023-05-08T07:40:52.921Z,1001.59
2023-05-08T07:41:54.094Z,1001.62
2023-05-08T07:42:53.708Z,1001.57
2023-05-08T07:43:53.888Z,1001.57
2023-05-08T07:44:55.200Z,1001.56
2023-05-08T07:45:53.561Z,1001.59
2023-05-08T07:46:52.798Z,1001.64
2023-05-08T07:47:52.538Z,1001.61
2023-05-08T07:48:52.400Z,1001.54
2023-05-08T07:49:52.849Z,1001.56
2023-05-08T07:50:52.325Z,1001.53
2023-05-08T07:51:52.264Z,1001.56
2023-05-08T07:52:52.210Z,1001.53
2023-05-08T07:53:52.091Z,1001.56
2023-05-08T07:54:52.139Z,1001.52
2023-05-08T07:55:52.002Z,1001.56
2023-05-08T07:56:51.992Z,1001.52
2023-05-08T07:57:51.879Z,1001.55
2023-05-08T07:58:51.834Z,1001.52
2023-05-08T07:59:51.785Z,1001.54
2023-05-08T08:00:51.690Z,1001.54
2023-05-08T08:01:51.617Z,1001.52
2023-05-08T08:02:51.737Z,1001.57
2023-05-08T08:03:51.654Z,1001.59
2023-05-08T08:04:51.434Z,1001.59
2023-05-08T08:05:51.360Z,1001.59
2023-05-08T08:06:51.319Z,1001.55
2023-05-08T08:07:51.260Z,1001.57
2023-05-08T08:08:51.237Z,1001.58
2023-05-08T08:09:51.090Z,1001.56
2023-05-08T08:10:51.081Z,1001.60
2023-05-08T08:11:51.046Z,1001.59
2023-05-08T08:12:51.003Z,1001.57
2023-05-08T08:13:50.849Z,1001.56
2023-05-08T08:14:50.882Z,1001.57
2023-05-08T08:15:50.771Z,1001.55
2023-05-08T08:16:50.748Z,1001.57
2023-05-08T08:17:50.840Z,1001.59
2023-05-08T08:18:51.064Z,1001.57
2023-05-08T08:19:50.500Z,1001.58
2023-05-08T08:20:50.435Z,1001.65
2023-05-08T08:21:50.381Z,1001.59
2023-05-08T08:22:50.903Z,1001.61
2023-05-08T08:23:50.261Z,1001.61
2023-05-08T08:24:51.833Z,1001.57
2023-05-08T08:25:51.076Z,1001.62
2023-05-08T08:26:51.063Z,1001.63
2023-05-08T08:27:50.040Z,1001.58
2023-05-08T08:28:49.947Z,1001.64
2023-05-08T08:29:52.624Z,1001.66
2023-05-08T08:30:49.833Z,1001.65
2023-05-08T08:31:49.735Z,1001.69
2023-05-08T08:32:49.853Z,1001.65
2023-05-08T08:33:50.581Z,1001.71
2023-05-08T08:34:49.653Z,1001.68
2023-05-08T08:35:49.586Z,1001.67
2023-05-08T08:36:49.545Z,1001.65
2023-05-08T08:37:49.428Z,1001.64
2023-05-08T08:38:49.350Z,1001.63
2023-05-08T08:39:49.455Z,1001.59
2023-05-08T08:40:49.203Z,1001.65
2023-05-08T08:41:49.156Z,1001.64
2023-05-08T08:42:49.321Z,1001.66
2023-05-08T08:43:49.061Z,1001.68
2023-05-08T08:44:48.998Z,1001.65
2023-05-08T08:45:48.925Z,1001.69
2023-05-08T08:46:48.967Z,1001.70
2023-05-08T08:47:48.855Z,1001.69
2023-05-08T08:48:48.757Z,1001.68
2023-05-08T08:49:50.152Z,1001.70
2023-05-08T08:50:48.594Z,1001.64
2023-05-08T08:51:48.557Z,1001.61
2023-05-08T08:52:48.504Z,1001.67
2023-05-08T08:53:49.077Z,1001.69
2023-05-08T08:54:48.372Z,1001.71
2023-05-08T08:55:48.387Z,1001.68
2023-05-08T08:56:48.230Z,1001.74
2023-05-08T08:57:49.066Z,1001.71
2023-05-08T08:58:48.098Z,1001.76
2023-05-08T08:59:48.137Z,1001.71
2023-05-08T09:00:47.993Z,1001.67
2023-05-08T09:01:47.992Z,1001.68
2023-05-08T09:02:47.974Z,1001.69
2023-05-08T09:03:49.768Z,1001.71
2023-05-08T09:04:47.745Z,1001.66
2023-05-08T09:05:47.744Z,1001.68
2023-05-08T09:06:47.599Z,1001.70
2023-05-08T09:07:47.545Z,1001.69
2023-05-08T09:08:47.558Z,1001.74
2023-05-08T09:09:48.350Z,1001.71
2023-05-08T09:10:47.434Z,1001.77
2023-05-08T09:11:47.415Z,1001.72
2023-05-08T09:12:47.407Z,1001.73
2023-05-08T09:13:47.209Z,1001.70
2023-05-08T09:14:47.151Z,1001.64
2023-05-08T09:15:47.120Z,1001.68
2023-05-08T09:16:47.389Z,1001.67
2023-05-08T09:17:46.993Z,1001.66
2023-05-08T09:18:46.876Z,1001.63
2023-05-08T09:19:47.083Z,1001.65
2023-05-08T09:20:47.027Z,1001.74
2023-05-08T09:21:46.939Z,1001.65
2023-05-08T09:22:46.859Z,1001.65
2023-05-08T09:23:46.611Z,1001.60
2023-05-08T09:24:46.542Z,1001.58
2023-05-08T09:25:46.745Z,1001.55
2023-05-08T09:26:46.392Z,1001.49
2023-05-08T09:27:46.327Z,1001.49
2023-05-08T09:28:47.564Z,1001.52
2023-05-08T09:29:46.203Z,1001.50
2023-05-08T09:30:46.214Z,1001.48
2023-05-08T09:31:46.362Z,1001.49
2023-05-08T09:32:46.220Z,1001.45
2023-05-08T09:33:45.978Z,1001.46
2023-05-08T09:34:47.200Z,1001.44
2023-05-08T09:35:47.549Z,1001.39
2023-05-08T09:36:45.801Z,1001.42
2023-05-08T09:37:47.104Z,1001.41
2023-05-08T09:38:45.683Z,1001.38
2023-05-08T09:39:45.601Z,1001.41
2023-05-08T09:40:45.548Z,1001.37
2023-05-08T09:41:45.690Z,1001.36
2023-05-08T09:42:46.595Z,1001.39
2023-05-08T09:43:46.631Z,1001.33
2023-05-08T09:44:45.308Z,1001.33
2023-05-08T09:45:45.325Z,1001.29
2023-05-08T09:46:45.201Z,1001.30
2023-05-08T09:47:45.230Z,1001.27
2023-05-08T09:48:45.075Z,1001.33
2023-05-08T09:49:45.026Z,1001.29
2023-05-08T09:50:44.924Z,1001.34
2023-05-08T09:51:44.962Z,1001.28
2023-05-08T09:52:45.075Z,1001.28
2023-05-08T09:53:45.591Z,1001.24
2023-05-08T09:54:46.792Z,1001.28
2023-05-08T09:55:45.039Z,1001.27
2023-05-08T09:56:45.000Z,1001.30
2023-05-08T09:57:44.706Z,1001.33
2023-05-08T09:58:45.731Z,1001.37
2023-05-08T09:59:44.465Z,1001.33
2023-05-08T10:00:44.405Z,1001.32
2023-05-08T10:01:44.329Z,1001.33
2023-05-08T10:02:44.284Z,1001.32
2023-05-08T10:03:44.189Z,1001.28
2023-05-08T10:04:44.219Z,1001.28
2023-05-08T10:05:44.018Z,1001.31
2023-05-08T10:06:44.591Z,1001.30
2023-05-08T10:07:43.932Z,1001.30
2023-05-08T10:08:43.929Z,1001.33
2023-05-08T10:09:50.611Z,1001.26
2023-05-08T10:10:43.777Z,1001.26
2023-05-08T10:11:43.704Z,1001.29
2023-05-08T10:12:43.644Z,1001.28
2023-05-08T10:13:43.529Z,1001.25
2023-05-08T10:14:46.360Z,1001.27
2023-05-08T10:15:43.448Z,1001.22
2023-05-08T10:16:43.462Z,1001.22
2023-05-08T10:17:43.377Z,1001.23
2023-05-08T10:18:43.234Z,1001.22
2023-05-08T10:19:43.191Z,1001.22
2023-05-08T10:20:43.222Z,1001.26
2023-05-08T10:21:43.099Z,1001.26
2023-05-08T10:22:43.055Z,1001.27
2023-05-08T10:23:42.946Z,1001.27
2023-05-08T10:24:42.882Z,1001.22
2023-05-08T10:25:43.075Z,1001.29
2023-05-08T10:26:50.720Z,1001.29
2023-05-08T10:27:42.863Z,1001.29
2023-05-08T10:28:42.689Z,1001.27
2023-05-08T10:29:42.621Z,1001.32
2023-05-08T10:30:42.594Z,1001.30
2023-05-08T10:31:42.530Z,1001.34
2023-05-08T10:32:42.402Z,1001.25
2023-05-08T10:33:42.314Z,1001.31
2023-05-08T10:34:42.334Z,1001.30
2023-05-08T10:35:42.275Z,1001.29
2023-05-08T10:36:42.190Z,1001.31
2023-05-08T10:37:42.270Z,1001.28
2023-05-08T10:38:42.097Z,1001.31
2023-05-08T10:39:41.977Z,1001.27
2023-05-08T10:40:43.162Z,1001.28
2023-05-08T10:41:41.881Z,1001.28
2023-05-08T10:42:41.798Z,1001.24
2023-05-08T10:43:41.815Z,1001.24
2023-05-08T10:44:41.682Z,1001.28
2023-05-08T10:45:41.728Z,1001.27
2023-05-08T10:46:41.672Z,1001.22
2023-05-08T10:47:45.140Z,1001.21
2023-05-08T10:48:42.812Z,1001.18
2023-05-08T10:49:42.087Z,1001.21
2023-05-08T10:50:42.260Z,1001.21
2023-05-08T10:51:42.075Z,1001.20
2023-05-08T10:52:42.623Z,1001.20
2023-05-08T10:53:41.139Z,1001.22
2023-05-08T10:54:41.102Z,1001.19
2023-05-08T10:55:41.037Z,1001.24
2023-05-08T10:56:40.939Z,1001.16
2023-05-08T10:57:40.944Z,1001.17
2023-05-08T10:58:42.110Z,1001.19
2023-05-08T10:59:40.836Z,1001.17
2023-05-08T11:00:40.697Z,1001.17
2023-05-08T11:01:40.770Z,1001.20
2023-05-08T11:02:40.750Z,1001.18
2023-05-08T11:03:40.717Z,1001.15
2023-05-08T11:04:40.785Z,1001.13
2023-05-08T11:05:40.430Z,1001.13
2023-05-08T11:06:40.338Z,1001.11
2023-05-08T11:07:40.307Z,1001.10
2023-05-08T11:08:40.277Z,1001.05
2023-05-08T11:09:41.083Z,1001.03
2023-05-08T11:10:40.155Z,1001.07
2023-05-08T11:11:40.081Z,1001.05
2023-05-08T11:12:41.265Z,1001.03
2023-05-08T11:13:41.657Z,1001.03
2023-05-08T11:14:41.565Z,1001.02
2023-05-08T11:15:41.040Z,1001.04
2023-05-08T11:16:40.736Z,1001.07
2023-05-08T11:17:39.681Z,1001.03
2023-05-08T11:18:48.980Z,1001.01
2023-05-08T11:19:39.545Z,1001.02
2023-05-08T11:20:41.921Z,1000.98
2023-05-08T11:21:39.643Z,1000.96
2023-05-08T11:22:39.440Z,1000.98
2023-05-08T11:23:39.335Z,1000.97
2023-05-08T11:24:39.272Z,1000.97
2023-05-08T11:25:39.200Z,1000.92
2023-05-08T11:26:40.089Z,1000.95
2023-05-08T11:27:39.625Z,1000.95
2023-05-08T11:28:39.082Z,1000.96
2023-05-08T11:29:38.965Z,1000.94
2023-05-08T11:30:38.925Z,1000.93
2023-05-08T11:31:38.913Z,1000.96
2023-05-08T11:32:38.740Z,1000.90
2023-05-08T11:33:38.736Z,1000.94
2023-05-08T11:34:38.627Z,1000.89
2023-05-08T11:35:38.578Z,1000.85
2023-05-08T11:36:38.549Z,1000.81
2023-05-08T11:37:38.474Z,1000.88
2023-05-08T11:38:42.012Z,1000.91
2023-05-08T11:39:38.368Z,1000.91
2023-05-08T11:40:38.261Z,1000.91
2023-05-08T11:41:38.240Z,1000.90
2023-05-08T11:42:38.129Z,1000.86
2023-05-08T11:43:38.126Z,1000.86
2023-05-08T11:44:38.054Z,1000.88
2023-05-08T11:45:37.952Z,1000.87
2023-05-08T11:46:37.942Z,1000.82
2023-05-08T11:47:38.671Z,1000.79
2023-05-08T11:48:37.783Z,1000.76
2023-05-08T11:49:37.724Z,1000.79
2023-05-08T11:50:38.584Z,1000.81
2023-05-08T11:51:37.803Z,1000.84
2023-05-08T11:52:37.559Z,1000.80
2023-05-08T11:53:37.554Z,1000.79
2023-05-08T11:54:38.681Z,1000.83
2023-05-08T11:55:39.216Z,1000.93
2023-05-08T11:56:38.103Z,1000.92
2023-05-08T11:57:40.038Z,1000.85
2023-05-08T11:58:38.097Z,1000.86
2023-05-08T11:59:42.604Z,1000.82
2023-05-08T12:00:39.366Z,1000.93
2023-05-08T12:01:39.595Z,1000.94
2023-05-08T12:02:37.548Z,1000.88
2023-05-08T12:03:37.079Z,1000.83
2023-05-08T12:04:36.855Z,1000.84